Time;durP1;ratioP1;P1;durP2;ratioP2;P2;SDS_P1;SDS_P2;PMS_P1;PMS_P2;Temp;Humidity;BMP_temperature;BMP_pressure;BME280_temperature;BME280_humidity;BME280_pressure;Samples;Min_cycle;Max_cycle;Signal;HPM_P1;HPM_P2
2021/12/08 00:00:21;;;;;;;2.80;1.10;;;2.80;72.00;;;;;;5136791;27;20019;-73
2021/12/08 00:02:47;;;;;;;1.23;0.90;;;2.80;67.10;;;;;;5136715;27;20080;-74
2021/12/08 00:05:15;;;;;;;2.30;0.88;;;2.80;66.90;;;;;;5136702;27;20027;-73
2021/12/08 00:07:41;;;;;;;2.22;0.70;;;2.80;67.50;;;;;;5136762;27;20372;-73
2021/12/08 00:13:06;;;;;;;4.03;1.23;;;2.60;70.20;;;;;;5136474;27;20430;-72
2021/12/08 00:15:36;;;;;;;3.30;1.23;;;2.60;72.20;;;;;;5136614;27;20379;-73
2021/12/08 00:18:04;;;;;;;2.60;1.40;;;2.50;73.80;;;;;;5136426;27;20111;-73
2021/12/08 00:20:32;;;;;;;2.80;0.90;;;2.30;75.50;;;;;;5135566;27;20024;-72
2021/12/08 00:22:58;;;;;;;1.80;0.80;;;2.20;75.00;;;;;;5136282;27;20049;-72
2021/12/08 00:25:24;;;;;;;1.83;1.05;;;2.20;75.90;;;;;;5135965;27;20071;-72
2021/12/08 00:27:50;;;;;;;3.63;0.98;;;2.10;76.80;;;;;;5136100;27;20031;-73
2021/12/08 00:30:17;;;;;;;2.40;0.77;;;2.10;77.20;;;;;;5136268;27;20031;-72
2021/12/08 00:32:43;;;;;;;4.03;1.02;;;2.10;78.20;;;;;;5114061;28;20048;-72
2021/12/08 00:35:10;;;;;;;0.82;0.80;;;2.10;78.50;;;;;;5115587;28;20452;-73
2021/12/08 00:37:35;;;;;;;2.88;0.85;;;2.10;79.20;;;;;;5115447;28;20035;-72
2021/12/08 00:40:02;;;;;;;1.65;0.70;;;2.10;80.70;;;;;;5115369;28;20026;-73
2021/12/08 00:42:27;;;;;;;5.18;1.00;;;2.20;81.20;;;;;;5115362;28;20029;-73
2021/12/08 00:44:53;;;;;;;3.47;1.08;;;2.30;82.70;;;;;;5115203;28;20027;-73
2021/12/08 00:47:18;;;;;;;2.78;1.20;;;2.40;83.40;;;;;;5115380;28;20102;-73
2021/12/08 00:49:46;;;;;;;1.85;0.73;;;2.40;84.10;;;;;;5115199;28;20475;-73
2021/12/08 00:52:13;;;;;;;1.50;1.00;;;2.60;85.50;;;;;;5115250;28;20034;-72
2021/12/08 00:54:39;;;;;;;3.72;1.10;;;2.70;86.00;;;;;;5115133;27;20055;-73
2021/12/08 00:57:05;;;;;;;3.05;0.98;;;2.90;86.20;;;;;;5115243;28;20027;-73
2021/12/08 00:59:31;;;;;;;2.08;1.30;;;3.10;87.00;;;;;;5115014;28;20024;-73
2021/12/08 01:02:02;;;;;;;1.63;0.88;;;3.30;86.90;;;;;;5115108;28;20081;-74
2021/12/08 01:04:29;;;;;;;1.65;0.95;;;3.50;86.60;;;;;;5113855;28;20465;-75
2021/12/08 01:06:54;;;;;;;7.80;1.50;;;3.70;87.00;;;;;;5113911;28;20123;-74
2021/12/08 01:09:20;;;;;;;1.90;1.20;;;3.80;86.50;;;;;;5115211;28;20070;-74
2021/12/08 01:11:46;;;;;;;4.45;1.42;;;3.90;86.30;;;;;;5114898;28;20027;-77
2021/12/08 01:14:12;;;;;;;3.17;1.50;;;4.00;86.20;;;;;;5115133;28;20084;-76
2021/12/08 01:16:38;;;;;;;4.18;1.73;;;4.00;85.80;;;;;;5113681;28;20020;-74
2021/12/08 01:19:04;;;;;;;4.45;1.60;;;4.10;85.90;;;;;;5114833;28;20046;-73
2021/12/08 01:21:30;;;;;;;4.07;1.75;;;4.10;86.30;;;;;;5114835;28;20027;-74
2021/12/08 01:23:55;;;;;;;2.15;1.48;;;4.00;86.60;;;;;;5114599;28;20106;-74
2021/12/08 01:26:21;;;;;;;5.47;1.80;;;4.10;86.50;;;;;;5114666;28;20024;-73
2021/12/08 01:28:51;;;;;;;2.05;1.30;;;4.10;87.60;;;;;;5114324;28;20027;-74
2021/12/08 01:31:17;;;;;;;1.90;1.40;;;4.20;87.30;;;;;;5119573;27;20039;-74
2021/12/08 01:33:43;;;;;;;2.30;1.17;;;4.40;87.10;;;;;;5115612;27;20471;-73
2021/12/08 01:36:08;;;;;;;3.38;1.20;;;4.50;86.70;;;;;;5134990;27;20019;-74
2021/12/08 01:38:34;;;;;;;1.90;1.15;;;4.60;86.40;;;;;;5135032;27;20027;-73
2021/12/08 01:41:02;;;;;;;1.50;0.93;;;4.70;86.10;;;;;;5134833;27;20031;-74
2021/12/08 01:43:29;;;;;;;1.70;1.00;;;4.60;86.30;;;;;;5134817;27;20134;-74
2021/12/08 01:46:04;;;;;;;1.20;0.90;;;4.70;86.10;;;;;;5134718;27;20106;-74
2021/12/08 01:48:33;;;;;;;2.50;1.60;;;4.60;86.40;;;;;;5134936;27;20094;-74
2021/12/08 01:51:11;;;;;;;1.30;0.80;;;4.70;86.70;;;;;;5134660;27;20264;-73
2021/12/08 01:53:43;;;;;;;1.77;0.88;;;4.70;86.70;;;;;;5134578;27;20036;-73
2021/12/08 01:56:10;;;;;;;0.82;0.77;;;4.70;86.30;;;;;;5134764;27;20020;-76
2021/12/08 01:58:36;;;;;;;2.15;1.00;;;4.80;86.30;;;;;;5134718;27;20054;-76
2021/12/08 02:01:08;;;;;;;0.88;0.60;;;4.80;86.20;;;;;;5134390;27;20064;-76
2021/12/08 02:03:35;;;;;;;1.08;0.82;;;4.80;86.70;;;;;;5134417;27;20457;-74
2021/12/08 02:06:03;;;;;;;1.85;0.98;;;4.80;86.10;;;;;;5134425;27;20055;-73
2021/12/08 02:08:29;;;;;;;1.00;0.47;;;4.80;86.10;;;;;;5134265;27;20033;-73
2021/12/08 02:10:55;;;;;;;1.33;0.70;;;4.90;86.40;;;;;;5134250;27;20451;-76
2021/12/08 02:13:21;;;;;;;0.80;0.80;;;4.90;86.10;;;;;;5134190;27;20087;-78
2021/12/08 02:15:48;;;;;;;1.65;1.10;;;4.90;86.40;;;;;;5134222;27;20019;-76
2021/12/08 02:18:18;;;;;;;1.35;0.55;;;4.90;86.30;;;;;;5134147;27;20027;-76
2021/12/08 02:20:47;;;;;;;1.38;0.82;;;4.80;86.40;;;;;;5134272;27;20375;-75
2021/12/08 02:23:13;;;;;;;3.67;0.93;;;4.80;86.30;;;;;;5134206;27;20019;-76
2021/12/08 02:25:39;;;;;;;1.50;1.00;;;4.80;86.00;;;;;;5134056;27;20110;-76
2021/12/08 02:28:07;;;;;;;1.17;0.75;;;4.80;86.20;;;;;;5115729;27;20168;-76
2021/12/08 02:30:43;;;;;;;0.73;0.65;;;4.70;87.10;;;;;;5134042;27;20023;-74
2021/12/08 02:47:10;;;;;;;1.27;0.65;;;4.60;87.60;;;;;;5133931;27;20100;-75
2021/12/08 02:49:38;;;;;;;1.27;0.88;;;4.60;87.50;;;;;;5133784;28;20019;-73
2021/12/08 02:52:06;;;;;;;1.00;0.85;;;4.60;87.40;;;;;;5133639;27;20471;-74
2021/12/08 02:54:52;;;;;;;1.08;0.77;;;4.60;87.80;;;;;;5133839;28;20077;-74
2021/12/08 02:57:19;;;;;;;;;;;4.60;87.60;;;;;;5134195;28;20050;-74
2021/12/08 02:59:46;;;;;;;0.77;0.70;;;4.60;87.20;;;;;;5133672;28;20459;-74
2021/12/08 03:02:12;;;;;;;1.30;0.90;;;4.60;87.50;;;;;;5133722;27;20043;-73
2021/12/08 03:04:38;;;;;;;0.88;0.82;;;4.60;87.60;;;;;;5133687;27;20027;-73
2021/12/08 03:07:04;;;;;;;1.83;0.60;;;4.60;87.60;;;;;;5133695;28;20095;-74
2021/12/08 03:09:30;;;;;;;1.10;1.00;;;4.60;87.60;;;;;;5133617;27;20023;-74
2021/12/08 03:11:58;;;;;;;1.10;0.77;;;4.50;87.90;;;;;;5133402;27;20027;-74
2021/12/08 03:14:25;;;;;;;1.27;0.80;;;4.50;88.20;;;;;;5133706;27;20432;-75
2021/12/08 03:16:54;;;;;;;0.60;0.57;;;4.50;88.30;;;;;;5133515;27;20054;-73
2021/12/08 03:19:23;;;;;;;0.68;0.63;;;4.50;88.20;;;;;;5133564;28;20038;-73
2021/12/08 03:21:49;;;;;;;1.70;0.80;;;4.50;88.40;;;;;;5133483;27;20027;-73
2021/12/08 03:24:25;;;;;;;0.88;0.82;;;4.50;88.90;;;;;;5133592;27;20015;-73
2021/12/08 03:27:04;;;;;;;1.00;0.80;;;4.50;89.30;;;;;;5133427;28;20030;-73
2021/12/08 03:29:58;;;;;;;3.47;0.77;;;4.50;89.40;;;;;;5133519;27;20099;-73
2021/12/08 03:32:35;;;;;;;0.60;0.60;;;4.50;89.80;;;;;;5133248;27;20039;-75
2021/12/08 03:35:04;;;;;;;1.30;0.88;;;4.50;89.90;;;;;;5133498;28;20092;-76
2021/12/08 03:37:36;;;;;;;1.90;0.80;;;4.40;89.70;;;;;;5134078;27;20383;-74
2021/12/08 03:40:10;;;;;;;1.70;0.60;;;4.40;89.70;;;;;;5138031;28;20034;-77
2021/12/08 03:42:38;;;;;;;0.82;0.80;;;4.40;89.60;;;;;;5134244;27;20023;-76
2021/12/08 03:45:10;;;;;;;0.88;0.75;;;4.40;89.50;;;;;;5133571;27;20102;-76
2021/12/08 03:47:39;;;;;;;1.15;0.90;;;4.40;89.40;;;;;;5133942;28;20092;-75
2021/12/08 03:50:08;;;;;;;1.38;0.80;;;4.40;89.30;;;;;;5142442;27;20154;-75
2021/12/08 03:52:33;;;;;;;0.50;0.50;;;4.40;89.20;;;;;;5133184;28;20114;-76
2021/12/08 03:54:59;;;;;;;1.40;0.93;;;4.30;89.10;;;;;;5133047;27;20055;-76
2021/12/08 03:57:24;;;;;;;0.55;0.50;;;4.30;89.20;;;;;;5135960;27;20023;-74
2021/12/08 03:59:50;;;;;;;0.50;0.50;;;4.30;89.00;;;;;;5136681;27;20035;-73
2021/12/08 04:02:16;;;;;;;1.02;0.50;;;4.30;89.00;;;;;;5136688;27;20076;-73
2021/12/08 04:04:49;;;;;;;3.38;1.88;;;4.30;89.70;;;;;;5136570;27;20027;-73
2021/12/08 04:07:16;;;;;;;2.67;1.65;;;4.30;88.80;;;;;;5136875;27;20120;-74
2021/12/08 04:09:44;;;;;;;2.30;1.25;;;4.30;88.90;;;;;;5136685;27;20110;-74
2021/12/08 04:12:15;;;;;;;0.75;0.60;;;4.30;88.70;;;;;;5136560;27;20029;-74
2021/12/08 04:14:46;;;;;;;0.90;0.70;;;4.30;88.60;;;;;;5136479;27;20497;-74
2021/12/08 04:17:29;;;;;;;2.63;1.10;;;4.30;88.50;;;;;;5136699;27;20019;-73
2021/12/08 04:19:56;;;;;;;2.22;1.50;;;4.30;88.50;;;;;;5136540;27;20023;-73
2021/12/08 04:22:24;;;;;;;2.83;1.20;;;4.30;88.30;;;;;;5136406;27;20027;-73
2021/12/08 04:24:52;;;;;;;1.17;0.60;;;4.30;88.30;;;;;;5136357;27;20098;-73
2021/12/08 04:27:28;;;;;;;2.20;1.42;;;4.30;88.20;;;;;;5136360;27;20474;-74
2021/12/08 04:29:53;;;;;;;1.00;0.57;;;4.20;88.00;;;;;;5136309;27;20034;-73
2021/12/08 04:32:22;;;;;;;0.30;0.30;;;4.30;87.90;;;;;;5135939;27;20047;-73
2021/12/08 04:34:54;;;;;;;0.32;0.20;;;4.30;87.70;;;;;;5136139;27;20030;-75
2021/12/08 04:37:27;;;;;;;0.22;0.22;;;4.20;87.70;;;;;;5136414;27;20072;-74
2021/12/08 04:40:18;;;;;;;0.35;0.35;;;4.30;87.90;;;;;;5136070;27;20023;-74
2021/12/08 04:45:19;;;;;;;0.32;0.30;;;4.20;87.80;;;;;;5135986;27;20394;-74
2021/12/08 04:48:04;;;;;;;1.23;0.40;;;4.20;87.60;;;;;;5135840;27;20106;-73
2021/12/08 04:51:07;;;;;;;1.83;0.52;;;4.20;87.70;;;;;;5135932;27;20114;-73
2021/12/08 05:07:16;;;;;;;1.80;0.70;;;4.10;87.70;;;;;;5135348;27;20137;-73
2021/12/08 05:09:43;;;;;;;1.67;0.77;;;4.10;87.90;;;;;;5135435;27;20064;-73
2021/12/08 05:12:19;;;;;;;2.85;1.02;;;4.10;87.70;;;;;;5135340;27;20019;-73
2021/12/08 05:14:53;;;;;;;5.60;2.50;;;4.10;87.70;;;;;;5135342;27;20123;-74
2021/12/08 05:17:40;;;;;;;4.13;2.03;;;4.00;87.70;;;;;;5135134;27;20459;-73
2021/12/08 05:20:23;;;;;;;2.38;1.20;;;4.00;87.80;;;;;;5135203;27;20424;-73
2021/12/08 05:22:56;;;;;;;2.80;1.08;;;4.10;87.70;;;;;;5135144;27;20426;-73
2021/12/08 05:25:25;;;;;;;1.08;0.70;;;4.10;87.90;;;;;;5135223;27;20042;-73
2021/12/08 05:27:54;;;;;;;1.27;0.75;;;4.00;88.00;;;;;;5134934;27;20027;-71
2021/12/08 05:30:27;;;;;;;1.83;0.95;;;4.00;88.40;;;;;;5135060;27;20414;-74
2021/12/08 05:32:52;;;;;;;1.33;0.88;;;4.00;88.60;;;;;;5134619;27;20518;-73
2021/12/08 05:35:20;;;;;;;2.97;0.95;;;4.00;88.70;;;;;;5134917;27;20031;-72
2021/12/08 05:37:46;;;;;;;1.55;0.60;;;4.00;88.70;;;;;;5134695;27;20019;-73
2021/12/08 05:40:20;;;;;;;1.48;0.82;;;4.00;88.70;;;;;;5134722;27;20050;-73
2021/12/08 05:42:47;;;;;;;2.33;1.77;;;4.00;89.00;;;;;;5134772;27;20436;-72
2021/12/08 05:45:17;;;;;;;7.07;3.00;;;4.10;89.00;;;;;;5134626;27;20023;-73
2021/12/08 05:47:45;;;;;;;3.10;2.40;;;4.00;88.70;;;;;;5134681;27;20027;-73
2021/12/08 05:50:14;;;;;;;2.80;2.03;;;4.10;88.90;;;;;;5134623;27;20036;-73
2021/12/08 05:52:40;;;;;;;2.00;1.77;;;4.10;88.90;;;;;;5134326;27;20047;-73
2021/12/08 05:55:08;;;;;;;2.70;1.85;;;4.10;89.00;;;;;;5134530;27;20527;-72
2021/12/08 05:57:38;;;;;;;2.75;1.73;;;4.10;88.90;;;;;;5134589;27;20099;-75
2021/12/08 06:00:12;;;;;;;2.20;1.50;;;4.20;89.10;;;;;;5134508;27;20481;-73
2021/12/08 06:02:38;;;;;;;2.10;1.45;;;4.20;89.40;;;;;;5134453;27;20016;-73
2021/12/08 06:05:07;;;;;;;1.10;0.88;;;4.20;89.50;;;;;;5134217;27;20034;-72
2021/12/08 06:07:32;;;;;;;2.70;1.63;;;4.20;89.50;;;;;;5134197;27;20038;-73
2021/12/08 06:10:05;;;;;;;4.13;2.70;;;4.20;89.30;;;;;;5134052;27;20023;-73
2021/12/08 06:12:31;;;;;;;7.10;3.75;;;4.20;89.20;;;;;;5133433;27;20041;-72
2021/12/08 06:14:57;;;;;;;9.98;4.50;;;4.20;89.00;;;;;;5115117;27;20035;-72
2021/12/08 06:17:26;;;;;;;12.02;5.72;;;4.20;88.70;;;;;;5133448;27;20020;-72
2021/12/08 06:19:53;;;;;;;12.45;6.68;;;4.20;88.50;;;;;;5132890;27;20027;-72
2021/12/08 06:22:21;;;;;;;17.25;8.98;;;4.20;88.60;;;;;;5114857;27;20373;-73
2021/12/08 06:24:48;;;;;;;8.43;4.35;;;4.20;88.50;;;;;;5134090;27;20506;-73
2021/12/08 06:27:14;;;;;;;5.20;1.55;;;4.10;88.60;;;;;;5133579;27;20023;-74
2021/12/08 06:29:41;;;;;;;2.10;1.25;;;4.00;88.10;;;;;;5133590;27;20103;-73
2021/12/08 06:32:09;;;;;;;3.38;1.58;;;3.90;88.30;;;;;;5132971;27;20047;-73
2021/12/08 06:34:36;;;;;;;2.65;1.60;;;3.90;88.30;;;;;;5133516;27;20412;-73
2021/12/08 06:37:22;;;;;;;2.97;1.70;;;3.90;89.00;;;;;;5133515;27;20015;-73
2021/12/08 06:39:53;;;;;;;2.85;1.80;;;3.90;89.40;;;;;;5115168;28;20026;-74
2021/12/08 06:42:23;;;;;;;4.43;1.83;;;4.00;89.30;;;;;;5133873;27;20028;-72
2021/12/08 06:44:50;;;;;;;2.78;1.70;;;4.00;88.40;;;;;;5115233;28;20356;-73
2021/12/08 06:47:20;;;;;;;1.55;1.42;;;3.90;87.40;;;;;;5133760;28;20027;-73
2021/12/08 06:49:48;;;;;;;2.47;1.17;;;3.80;88.10;;;;;;5133760;27;20475;-73
2021/12/08 06:52:18;;;;;;;1.60;1.23;;;3.80;88.10;;;;;;5133596;27;20072;-73
2021/12/08 06:54:48;;;;;;;1.40;1.30;;;3.70;88.20;;;;;;5133640;27;20041;-72
2021/12/08 06:57:22;;;;;;;1.90;1.30;;;3.70;88.50;;;;;;5133621;27;20023;-72
2021/12/08 06:59:58;;;;;;;2.45;1.55;;;3.70;88.40;;;;;;5134020;28;20068;-72
2021/12/08 07:05:29;;;;;;;3.60;1.70;;;3.90;88.90;;;;;;5137427;27;20015;-73
2021/12/08 07:07:59;;;;;;;1.48;1.20;;;3.90;88.50;;;;;;5136989;27;20030;-73
2021/12/08 07:10:29;;;;;;;1.27;1.00;;;3.90;88.30;;;;;;5118487;28;20020;-74
2021/12/08 07:13:20;;;;;;;2.40;1.23;;;4.00;88.20;;;;;;5136870;28;20031;-71
2021/12/08 07:15:55;;;;;;;1.83;1.20;;;4.10;88.30;;;;;;5136179;27;20080;-72
2021/12/08 07:18:27;;;;;;;1.25;1.08;;;4.10;88.70;;;;;;5134591;27;20560;-73
2021/12/08 07:20:58;;;;;;;3.72;1.98;;;4.10;88.50;;;;;;5133255;27;20027;-74
2021/12/08 07:23:52;;;;;;;4.25;2.05;;;4.20;88.50;;;;;;5133445;27;20023;-75
2021/12/08 07:26:25;;;;;;;4.60;2.15;;;4.30;88.30;;;;;;5133206;27;20053;-75
2021/12/08 07:28:53;;;;;;;3.90;2.15;;;4.30;87.90;;;;;;5133413;27;20062;-74
2021/12/08 07:31:26;;;;;;;7.63;3.55;;;4.30;87.70;;;;;;5134499;27;20365;-74
2021/12/08 07:33:53;;;;;;;5.68;2.80;;;4.30;87.60;;;;;;5137121;27;20467;-74
2021/12/08 07:36:23;;;;;;;2.88;1.98;;;4.20;86.90;;;;;;5137151;27;20467;-75
2021/12/08 07:38:52;;;;;;;4.07;2.00;;;4.30;87.20;;;;;;5137091;27;20446;-73
2021/12/08 07:41:32;;;;;;;1.52;1.10;;;4.20;87.30;;;;;;5137090;27;20019;-73
2021/12/08 07:44:03;;;;;;;2.47;1.17;;;4.20;87.20;;;;;;5137145;27;20106;-74
2021/12/08 07:46:41;;;;;;;2.47;1.10;;;4.20;87.30;;;;;;5118528;27;20065;-74
2021/12/08 07:49:15;;;;;;;2.17;1.50;;;4.20;88.10;;;;;;5136833;27;20360;-72
2021/12/08 07:51:48;;;;;;;2.38;1.58;;;4.20;87.00;;;;;;5137217;27;20471;-74
2021/12/08 07:54:14;;;;;;;5.47;3.33;;;4.20;86.80;;;;;;5118727;27;20472;-77
2021/12/08 07:56:43;;;;;;;4.78;3.63;;;4.20;86.80;;;;;;5136888;27;20467;-75
2021/12/08 07:59:11;;;;;;;5.38;3.30;;;4.10;87.00;;;;;;5118465;27;20031;-77
2021/12/08 08:01:40;;;;;;;15.32;4.00;;;4.20;87.00;;;;;;5136758;27;20020;-74
2021/12/08 08:04:10;;;;;;;5.53;1.83;;;4.40;90.50;;;;;;5137024;27;20535;-74
2021/12/08 08:06:42;;;;;;;5.85;1.95;;;4.70;91.50;;;;;;5136823;27;20011;-78
2021/12/08 08:09:19;;;;;;;3.13;1.98;;;5.20;91.40;;;;;;5136822;27;20154;-77
2021/12/08 08:11:54;;;;;;;1.58;1.30;;;5.80;85.90;;;;;;5136848;27;20023;-78
2021/12/08 08:14:21;;;;;;;2.35;1.10;;;6.30;81.00;;;;;;5136538;27;20122;-77
2021/12/08 08:16:55;;;;;;;4.10;1.10;;;6.50;78.80;;;;;;5136384;27;20091;-77
2021/12/08 08:19:26;;;;;;;3.42;1.52;;;6.70;76.90;;;;;;5136578;27;20037;-74
2021/12/08 08:21:54;;;;;;;2.53;1.33;;;6.70;75.60;;;;;;5136403;27;20022;-77
2021/12/08 08:24:20;;;;;;;1.75;1.20;;;6.80;75.10;;;;;;5136461;27;20450;-74
2021/12/08 08:26:49;;;;;;;2.30;1.27;;;6.60;75.20;;;;;;5136350;27;20056;-73
2021/12/08 08:29:15;;;;;;;1.02;0.90;;;6.50;75.80;;;;;;5117554;27;20033;-74
2021/12/08 08:31:46;;;;;;;1.40;0.90;;;6.50;76.10;;;;;;5135781;27;20056;-74
2021/12/08 08:34:12;;;;;;;1.92;1.38;;;6.50;75.70;;;;;;5135953;27;20031;-74
2021/12/08 08:36:42;;;;;;;1.77;1.20;;;6.30;75.30;;;;;;5135463;27;20091;-76
2021/12/08 08:39:12;;;;;;;2.70;0.60;;;6.10;76.10;;;;;;5135760;27;20110;-75
2021/12/08 08:41:48;;;;;;;1.15;0.65;;;6.10;75.80;;;;;;5135278;27;20166;-75
2021/12/08 08:44:20;;;;;;;1.67;0.70;;;6.10;76.80;;;;;;5135868;27;20067;-76
2021/12/08 08:46:48;;;;;;;2.45;1.10;;;6.30;76.30;;;;;;5134812;27;20027;-73
2021/12/08 08:49:19;;;;;;;2.83;1.25;;;6.40;76.30;;;;;;5135779;27;20057;-75
2021/12/08 08:52:01;;;;;;;2.15;1.08;;;6.50;76.30;;;;;;5135326;27;20530;-75
2021/12/08 08:54:32;;;;;;;4.15;1.50;;;6.50;76.10;;;;;;5135568;27;20038;-75
2021/12/08 08:57:23;;;;;;;1.05;0.73;;;6.20;76.00;;;;;;5135429;27;20030;-74
2021/12/08 09:00:01;;;;;;;1.20;0.80;;;5.90;75.80;;;;;;5135475;27;20039;-77
2021/12/08 09:02:37;;;;;;;2.08;1.02;;;5.70;76.70;;;;;;5134614;27;20106;-75
2021/12/08 09:05:08;;;;;;;1.50;1.00;;;5.50;77.60;;;;;;5135283;27;20028;-77
2021/12/08 09:07:40;;;;;;;1.40;0.82;;;5.40;78.20;;;;;;5134609;27;20030;-75
2021/12/08 09:10:21;;;;;;;1.63;0.95;;;5.30;79.00;;;;;;5116726;27;20023;-76
2021/12/08 09:13:22;;;;;;;2.60;0.70;;;5.10;80.00;;;;;;5116574;27;20483;-77
2021/12/08 09:15:52;;;;;;;0.68;0.68;;;4.90;80.40;;;;;;5135491;27;20471;-77
2021/12/08 09:18:24;;;;;;;0.95;0.95;;;4.90;80.90;;;;;;5116702;27;20078;-78
2021/12/08 09:21:33;;;;;;;1.30;0.82;;;4.90;81.20;;;;;;5135115;27;20020;-77
2021/12/08 09:24:01;;;;;;;0.60;0.50;;;4.80;82.00;;;;;;5135016;27;20083;-78
2021/12/08 09:26:30;;;;;;;3.30;2.03;;;4.60;82.10;;;;;;5134957;27;20026;-78
2021/12/08 09:29:13;;;;;;;1.35;1.00;;;4.60;82.70;;;;;;5134969;27;20019;-77
2021/12/08 09:31:46;;;;;;;0.85;0.70;;;4.60;82.80;;;;;;5134689;27;20511;-78
2021/12/08 09:34:22;;;;;;;1.25;0.63;;;4.60;83.00;;;;;;5134786;27;20080;-76
2021/12/08 09:36:52;;;;;;;;;;;4.60;83.50;;;;;;5135087;27;20023;-78
2021/12/08 09:39:23;;;;;;;1.42;1.00;;;4.60;83.80;;;;;;5134694;27;19910;-77
2021/12/08 09:42:07;;;;;;;1.83;1.20;;;4.60;84.00;;;;;;5134674;27;20023;-77
2021/12/08 09:44:42;;;;;;;1.08;0.93;;;4.60;83.80;;;;;;5134794;27;20356;-77
2021/12/08 09:47:07;;;;;;;0.93;0.70;;;4.60;84.00;;;;;;5134752;27;20029;-77
2021/12/08 09:49:34;;;;;;;2.95;1.40;;;4.60;84.30;;;;;;5134519;27;20015;-76
2021/12/08 09:52:05;;;;;;;2.42;1.75;;;4.50;84.40;;;;;;5134429;27;20043;-76
2021/12/08 09:54:32;;;;;;;4.72;3.03;;;4.60;84.60;;;;;;5127730;27;20096;-78
2021/12/08 09:57:06;;;;;;;3.45;2.40;;;4.50;84.60;;;;;;5117392;27;20019;-76
2021/12/08 09:59:33;;;;;;;3.75;2.60;;;4.50;84.80;;;;;;5133354;27;20034;-77
2021/12/08 10:02:03;;;;;;;3.63;2.35;;;4.50;85.00;;;;;;5133289;27;20030;-75
2021/12/08 10:04:28;;;;;;;4.47;2.55;;;4.50;85.20;;;;;;5133615;27;20027;-75
2021/12/08 10:06:59;;;;;;;3.33;2.17;;;4.40;85.50;;;;;;5133684;27;20030;-74
2021/12/08 10:09:24;;;;;;;9.50;2.00;;;4.40;85.50;;;;;;5133827;27;20030;-75
2021/12/08 10:11:54;;;;;;;3.83;2.13;;;4.40;85.70;;;;;;5133920;27;20070;-75
2021/12/08 10:14:20;;;;;;;5.55;2.63;;;4.50;86.10;;;;;;5133649;27;20042;-75
2021/12/08 10:16:48;;;;;;;4.45;2.40;;;4.50;86.30;;;;;;5133823;27;20027;-75
2021/12/08 10:19:14;;;;;;;3.30;2.10;;;4.60;86.50;;;;;;5133597;27;20379;-76
2021/12/08 10:21:41;;;;;;;2.35;1.77;;;4.60;86.70;;;;;;5133586;27;20344;-75
2021/12/08 10:24:26;;;;;;;1.83;1.60;;;4.70;86.90;;;;;;5114822;27;20051;-74
2021/12/08 10:27:00;;;;;;;2.83;1.83;;;4.70;86.80;;;;;;5133701;27;20151;-78
2021/12/08 10:29:28;;;;;;;4.05;1.98;;;4.70;86.80;;;;;;5133764;27;20435;-77
2021/12/08 10:31:54;;;;;;;2.10;1.75;;;4.80;86.80;;;;;;5133611;27;20096;-78
2021/12/08 10:34:26;;;;;;;2.63;2.00;;;4.80;86.90;;;;;;5133368;27;20030;-79
2021/12/08 10:37:06;;;;;;;2.40;1.80;;;4.70;87.00;;;;;;5133645;27;20478;-75
2021/12/08 10:39:32;;;;;;;3.08;1.90;;;4.80;87.10;;;;;;5133927;27;20027;-77
2021/12/08 10:42:14;;;;;;;2.55;1.95;;;4.80;87.10;;;;;;5133474;27;20094;-78
2021/12/08 10:44:55;;;;;;;3.72;2.53;;;4.90;86.90;;;;;;5133720;28;20050;-78
2021/12/08 10:47:25;;;;;;;2.97;2.30;;;4.90;86.50;;;;;;5133728;28;20019;-76
2021/12/08 10:55:22;;;;;;;3.67;2.70;;;4.80;85.10;;;;;;5133455;28;20042;-76
2021/12/08 10:57:53;;;;;;;5.28;2.80;;;4.80;85.00;;;;;;5133397;28;20023;-77
2021/12/08 11:00:29;;;;;;;6.40;3.40;;;4.90;85.10;;;;;;5133304;28;20106;-77
2021/12/08 11:02:58;;;;;;;5.32;3.45;;;4.80;84.50;;;;;;5133364;28;20022;-73
2021/12/08 11:05:24;;;;;;;6.50;3.10;;;4.80;84.70;;;;;;5134842;27;20033;-74
2021/12/08 11:08:10;;;;;;;4.45;2.75;;;4.70;84.80;;;;;;5119281;27;20019;-76
2021/12/08 11:11:20;;;;;;;6.47;3.08;;;4.70;84.80;;;;;;5137676;27;20020;-76
2021/12/08 11:13:55;;;;;;;4.70;2.88;;;4.60;84.90;;;;;;5097821;27;20046;-74
2021/12/08 11:16:22;;;;;;;5.97;2.75;;;4.60;84.90;;;;;;5116621;28;20038;-74
2021/12/08 11:19:00;;;;;;;4.82;2.45;;;4.60;85.10;;;;;;5116897;27;20030;-75
2021/12/08 11:21:32;;;;;;;6.00;2.72;;;4.70;85.10;;;;;;5116990;28;20043;-77
2021/12/08 11:24:00;;;;;;;7.38;3.15;;;4.70;85.00;;;;;;5116680;28;20026;-75
2021/12/08 11:26:31;;;;;;;4.45;3.00;;;4.70;85.30;;;;;;5098384;28;20356;-77
2021/12/08 11:29:00;;;;;;;5.38;3.13;;;4.70;85.90;;;;;;5116574;28;20076;-75
2021/12/08 11:31:46;;;;;;;5.07;3.15;;;4.80;86.10;;;;;;5116086;28;20039;-74
2021/12/08 11:34:24;;;;;;;3.67;2.92;;;4.80;86.50;;;;;;5116224;28;20031;-74
2021/12/08 11:36:59;;;;;;;6.95;3.75;;;4.80;86.50;;;;;;5132968;27;20019;-76
2021/12/08 11:39:30;;;;;;;5.93;3.67;;;4.90;87.10;;;;;;5136937;27;20035;-75
2021/12/08 11:42:06;;;;;;;7.60;3.65;;;4.90;87.00;;;;;;5136729;27;20019;-75
2021/12/08 11:44:34;;;;;;;6.28;3.88;;;4.90;86.90;;;;;;5136561;27;20471;-75
2021/12/08 11:47:12;;;;;;;5.93;4.05;;;4.90;87.00;;;;;;5136937;27;20469;-77
2021/12/08 11:49:54;;;;;;;8.60;4.78;;;4.90;86.70;;;;;;5136457;27;20019;-74
2021/12/08 11:52:23;;;;;;;5.50;3.63;;;4.80;86.90;;;;;;5136320;27;20442;-75
2021/12/08 11:54:54;;;;;;;5.38;3.90;;;4.90;86.90;;;;;;5135061;27;20054;-75
2021/12/08 11:57:21;;;;;;;6.60;4.10;;;4.90;87.00;;;;;;5136465;27;20029;-75
2021/12/08 11:59:48;;;;;;;6.03;4.57;;;4.90;86.70;;;;;;5136596;27;20542;-76
2021/12/08 12:02:15;;;;;;;6.68;4.28;;;4.90;86.50;;;;;;5134910;27;20051;-75
2021/12/08 12:04:42;;;;;;;4.65;2.85;;;5.00;86.50;;;;;;5136309;27;20382;-76
2021/12/08 12:07:10;;;;;;;5.40;2.65;;;5.00;86.20;;;;;;5136493;27;20027;-75
2021/12/08 12:09:36;;;;;;;4.28;2.80;;;5.00;86.20;;;;;;5136441;27;20102;-75
2021/12/08 12:12:02;;;;;;;4.82;3.17;;;5.00;86.20;;;;;;5136480;27;20027;-76
2021/12/08 12:14:28;;;;;;;4.10;2.53;;;5.00;86.30;;;;;;5132934;27;20034;-75
2021/12/08 12:16:54;;;;;;;4.72;3.30;;;5.00;86.30;;;;;;5130672;27;20019;-74
2021/12/08 12:19:23;;;;;;;6.13;3.88;;;5.00;86.30;;;;;;5136045;27;20019;-75
2021/12/08 12:21:56;;;;;;;5.95;3.25;;;5.10;86.30;;;;;;5134725;27;20022;-76
2021/12/08 12:24:41;;;;;;;5.20;3.50;;;5.10;86.20;;;;;;5136091;27;20015;-76
2021/12/08 12:27:28;;;;;;;4.85;3.30;;;5.20;86.10;;;;;;5135909;27;20027;-76
2021/12/08 12:30:14;;;;;;;4.38;3.13;;;5.20;85.80;;;;;;5136359;27;20019;-78
2021/12/08 12:32:53;;;;;;;6.90;3.38;;;5.30;85.70;;;;;;5136196;27;20462;-78
2021/12/08 12:35:29;;;;;;;5.45;3.75;;;5.30;85.70;;;;;;5136183;27;20023;-78
2021/12/08 12:38:07;;;;;;;5.20;3.60;;;5.30;85.70;;;;;;5135971;27;20058;-76
2021/12/08 12:40:39;;;;;;;7.40;3.78;;;5.30;85.60;;;;;;5134723;27;20072;-75
2021/12/08 12:43:06;;;;;;;5.82;3.83;;;5.30;85.30;;;;;;5135032;27;20076;-77
2021/12/08 12:45:38;;;;;;;7.35;4.03;;;5.30;85.40;;;;;;5134884;27;20019;-78
2021/12/08 12:48:11;;;;;;;6.15;4.35;;;5.30;85.50;;;;;;5134869;27;20023;-79
2021/12/08 12:51:01;;;;;;;7.68;4.57;;;5.30;85.40;;;;;;5134470;27;20019;-75
2021/12/08 12:53:45;;;;;;;11.77;5.28;;;5.40;85.10;;;;;;5135042;27;20054;-77
2021/12/08 12:56:16;;;;;;;7.57;5.07;;;5.30;84.50;;;;;;5134515;27;20483;-78
2021/12/08 12:58:51;;;;;;;11.48;6.22;;;5.30;84.20;;;;;;5135135;27;20031;-76
2021/12/08 13:01:30;;;;;;;14.68;6.50;;;5.30;84.30;;;;;;5134442;27;20076;-75
2021/12/08 13:04:03;;;;;;;11.27;6.07;;;5.30;84.30;;;;;;5135737;27;20075;-75
2021/12/08 13:06:40;;;;;;;15.15;6.30;;;5.30;84.50;;;;;;5135832;27;20035;-76
2021/12/08 13:09:08;;;;;;;12.25;5.68;;;5.30;85.00;;;;;;5135531;27;20449;-73
2021/12/08 13:11:57;;;;;;;9.73;5.15;;;5.20;85.00;;;;;;5135343;27;20427;-75
2021/12/08 13:14:30;;;;;;;13.88;7.05;;;5.30;85.30;;;;;;5135187;27;20118;-72
2021/12/08 13:17:12;;;;;;;15.10;7.55;;;5.30;85.40;;;;;;5135141;27;20030;-73
2021/12/08 13:19:44;;;;;;;22.15;9.07;;;5.30;85.50;;;;;;5135263;27;20082;-74
2021/12/08 13:22:43;;;;;;;18.08;7.97;;;5.30;85.90;;;;;;5133884;27;20020;-74
2021/12/08 13:25:24;;;;;;;15.38;7.43;;;5.30;85.90;;;;;;5135185;27;20022;-73
2021/12/08 13:28:09;;;;;;;14.18;7.70;;;5.20;85.90;;;;;;5135051;27;20027;-73
2021/12/08 13:30:41;;;;;;;;;;;5.20;86.10;;;;;;5135593;27;20043;-73
2021/12/08 13:33:29;;;;;;;12.35;6.97;;;5.20;86.40;;;;;;5134528;27;19915;-74
2021/12/08 13:35:57;;;;;;;15.70;7.88;;;5.20;86.60;;;;;;5133658;27;20505;-73
2021/12/08 13:38:40;;;;;;;12.85;6.93;;;5.20;86.50;;;;;;5134738;27;20056;-75
2021/12/08 13:41:14;;;;;;;10.27;6.85;;;5.30;86.70;;;;;;5134797;27;20023;-74
2021/12/08 13:43:49;;;;;;;12.18;6.05;;;5.30;87.40;;;;;;5134777;27;20082;-73
2021/12/08 13:46:37;;;;;;;15.10;7.78;;;5.20;87.30;;;;;;5134698;27;20022;-74
2021/12/08 13:49:19;;;;;;;8.80;5.78;;;5.10;87.50;;;;;;5134494;27;20458;-73
2021/12/08 13:52:06;;;;;;;6.57;4.82;;;5.10;87.00;;;;;;5134591;27;20019;-74
2021/12/08 13:54:37;;;;;;;8.10;4.63;;;5.00;86.40;;;;;;5134569;27;20516;-74
2021/12/08 13:57:24;;;;;;;6.65;4.07;;;4.80;86.30;;;;;;5132888;27;20076;-76
2021/12/08 13:59:59;;;;;;;9.35;5.28;;;4.70;86.00;;;;;;5134628;27;20383;-77
2021/12/08 14:02:31;;;;;;;5.75;3.38;;;4.60;86.10;;;;;;5134572;27;20023;-77